sensor_id;sensor_type;location;lat;lon;timestamp;P1;durP1;ratioP1;P2;durP2;ratioP2
12088;SDS011;6107;49.078;8.578;2022-12-07T00:03:58;15.60;;;8.77;;
12088;SDS011;6107;49.078;8.578;2022-12-07T00:06:46;12.50;;;8.00;;
12088;SDS011;6107;49.078;8.578;2022-12-07T00:09:17;13.63;;;8.53;;
12088;SDS011;6107;49.078;8.578;2022-12-07T00:11:43;15.50;;;8.93;;
12088;SDS011;6107;49.078;8.578;2022-12-07T00:14:11;16.50;;;9.43;;
12088;SDS011;6107;49.078;8.578;2022-12-07T00:16:37;14.57;;;8.50;;
12088;SDS011;6107;49.078;8.578;2022-12-07T00:19:04;16.23;;;10.03;;
12088;SDS011;6107;49.078;8.578;2022-12-07T00:21:30;15.93;;;9.00;;
12088;SDS011;6107;49.078;8.578;2022-12-07T00:23:57;14.23;;;9.27;;
12088;SDS011;6107;49.078;8.578;2022-12-07T00:26:27;14.27;;;8.53;;
12088;SDS011;6107;49.078;8.578;2022-12-07T00:28:54;13.43;;;8.93;;
12088;SDS011;6107;49.078;8.578;2022-12-07T00:31:26;15.60;;;8.73;;
12088;SDS011;6107;49.078;8.578;2022-12-07T00:33:54;13.93;;;8.70;;
12088;SDS011;6107;49.078;8.578;2022-12-07T00:36:21;14.13;;;8.90;;
12088;SDS011;6107;49.078;8.578;2022-12-07T00:38:47;13.40;;;9.00;;
12088;SDS011;6107;49.078;8.578;2022-12-07T00:41:17;14.77;;;8.33;;
12088;SDS011;6107;49.078;8.578;2022-12-07T00:43:44;14.37;;;8.10;;
12088;SDS011;6107;49.078;8.578;2022-12-07T00:46:11;15.00;;;9.33;;
12088;SDS011;6107;49.078;8.578;2022-12-07T00:48:37;14.13;;;9.03;;
12088;SDS011;6107;49.078;8.578;2022-12-07T00:51:03;12.90;;;8.40;;
12088;SDS011;6107;49.078;8.578;2022-12-07T00:53:30;13.37;;;8.10;;
12088;SDS011;6107;49.078;8.578;2022-12-07T00:55:58;13.83;;;8.57;;
12088;SDS011;6107;49.078;8.578;2022-12-07T00:58:33;15.63;;;9.00;;
12088;SDS011;6107;49.078;8.578;2022-12-07T01:01:02;16.07;;;9.40;;
12088;SDS011;6107;49.078;8.578;2022-12-07T01:03:29;15.47;;;9.07;;
12088;SDS011;6107;49.078;8.578;2022-12-07T01:05:55;15.67;;;9.90;;
12088;SDS011;6107;49.078;8.578;2022-12-07T01:08:22;15.97;;;9.27;;
12088;SDS011;6107;49.078;8.578;2022-12-07T01:10:48;15.80;;;9.60;;
12088;SDS011;6107;49.078;8.578;2022-12-07T01:13:15;16.63;;;9.47;;
12088;SDS011;6107;49.078;8.578;2022-12-07T01:15:42;15.10;;;9.00;;
12088;SDS011;6107;49.078;8.578;2022-12-07T01:18:09;20.30;;;10.10;;
12088;SDS011;6107;49.078;8.578;2022-12-07T01:20:35;16.03;;;9.43;;
12088;SDS011;6107;49.078;8.578;2022-12-07T01:23:01;16.77;;;9.97;;
12088;SDS011;6107;49.078;8.578;2022-12-07T01:25:27;16.63;;;8.97;;
12088;SDS011;6107;49.078;8.578;2022-12-07T01:27:53;16.00;;;8.97;;
12088;SDS011;6107;49.078;8.578;2022-12-07T01:30:18;12.80;;;8.83;;
12088;SDS011;6107;49.078;8.578;2022-12-07T01:32:44;15.27;;;9.30;;
12088;SDS011;6107;49.078;8.578;2022-12-07T01:35:09;14.30;;;9.13;;
12088;SDS011;6107;49.078;8.578;2022-12-07T01:37:35;15.73;;;9.93;;
12088;SDS011;6107;49.078;8.578;2022-12-07T01:40:03;14.50;;;9.23;;
12088;SDS011;6107;49.078;8.578;2022-12-07T01:42:33;16.70;;;10.03;;
12088;SDS011;6107;49.078;8.578;2022-12-07T01:47:44;18.17;;;10.17;;
12088;SDS011;6107;49.078;8.578;2022-12-07T01:50:21;17.60;;;10.53;;
12088;SDS011;6107;49.078;8.578;2022-12-07T01:52:49;19.30;;;10.70;;
12088;SDS011;6107;49.078;8.578;2022-12-07T01:55:16;20.80;;;12.10;;
12088;SDS011;6107;49.078;8.578;2022-12-07T01:57:47;17.83;;;10.53;;
12088;SDS011;6107;49.078;8.578;2022-12-07T02:00:16;17.97;;;10.83;;
12088;SDS011;6107;49.078;8.578;2022-12-07T02:02:53;21.47;;;10.57;;
12088;SDS011;6107;49.078;8.578;2022-12-07T02:05:23;16.57;;;10.13;;
12088;SDS011;6107;49.078;8.578;2022-12-07T02:07:50;17.80;;;10.30;;
12088;SDS011;6107;49.078;8.578;2022-12-07T02:13:00;20.77;;;10.67;;
12088;SDS011;6107;49.078;8.578;2022-12-07T02:15:46;16.87;;;9.60;;
12088;SDS011;6107;49.078;8.578;2022-12-07T02:21:13;17.63;;;9.73;;
12088;SDS011;6107;49.078;8.578;2022-12-07T02:24:19;18.17;;;10.00;;
12088;SDS011;6107;49.078;8.578;2022-12-07T02:29:22;20.87;;;10.60;;
12088;SDS011;6107;49.078;8.578;2022-12-07T02:31:53;19.47;;;10.83;;
12088;SDS011;6107;49.078;8.578;2022-12-07T02:34:22;20.07;;;11.23;;
12088;SDS011;6107;49.078;8.578;2022-12-07T02:37:00;18.47;;;11.03;;
12088;SDS011;6107;49.078;8.578;2022-12-07T02:39:41;24.27;;;11.83;;
12088;SDS011;6107;49.078;8.578;2022-12-07T02:42:13;21.40;;;11.20;;
12088;SDS011;6107;49.078;8.578;2022-12-07T02:44:43;22.33;;;11.40;;
12088;SDS011;6107;49.078;8.578;2022-12-07T02:47:11;20.57;;;10.87;;
12088;SDS011;6107;49.078;8.578;2022-12-07T02:49:39;24.73;;;10.63;;
12088;SDS011;6107;49.078;8.578;2022-12-07T02:52:05;22.03;;;11.50;;
12088;SDS011;6107;49.078;8.578;2022-12-07T02:54:30;19.70;;;11.13;;
12088;SDS011;6107;49.078;8.578;2022-12-07T02:56:59;19.27;;;11.57;;
12088;SDS011;6107;49.078;8.578;2022-12-07T03:19:03;19.77;;;11.23;;
12088;SDS011;6107;49.078;8.578;2022-12-07T03:21:39;19.40;;;10.40;;
12088;SDS011;6107;49.078;8.578;2022-12-07T03:24:08;18.73;;;11.13;;
12088;SDS011;6107;49.078;8.578;2022-12-07T03:26:41;19.93;;;11.20;;
12088;SDS011;6107;49.078;8.578;2022-12-07T03:29:16;17.23;;;10.73;;
12088;SDS011;6107;49.078;8.578;2022-12-07T03:31:48;21.97;;;11.00;;
12088;SDS011;6107;49.078;8.578;2022-12-07T03:34:22;17.40;;;10.53;;
12088;SDS011;6107;49.078;8.578;2022-12-07T03:37:18;18.90;;;10.40;;
12088;SDS011;6107;49.078;8.578;2022-12-07T03:40:13;20.13;;;10.73;;
12088;SDS011;6107;49.078;8.578;2022-12-07T03:42:42;19.63;;;10.53;;
12088;SDS011;6107;49.078;8.578;2022-12-07T03:45:08;17.97;;;10.50;;
12088;SDS011;6107;49.078;8.578;2022-12-07T03:50:32;20.87;;;11.03;;
12088;SDS011;6107;49.078;8.578;2022-12-07T03:53:11;20.80;;;11.50;;
12088;SDS011;6107;49.078;8.578;2022-12-07T03:55:58;23.83;;;14.20;;
12088;SDS011;6107;49.078;8.578;2022-12-07T03:58:25;21.57;;;12.40;;
12088;SDS011;6107;49.078;8.578;2022-12-07T04:00:51;21.13;;;11.13;;
12088;SDS011;6107;49.078;8.578;2022-12-07T04:03:17;22.93;;;11.87;;
12088;SDS011;6107;49.078;8.578;2022-12-07T04:05:43;22.80;;;11.87;;
12088;SDS011;6107;49.078;8.578;2022-12-07T04:08:09;23.10;;;11.10;;
12088;SDS011;6107;49.078;8.578;2022-12-07T04:10:35;22.97;;;12.23;;
12088;SDS011;6107;49.078;8.578;2022-12-07T04:13:01;18.37;;;11.10;;
12088;SDS011;6107;49.078;8.578;2022-12-07T04:15:26;20.87;;;11.80;;
12088;SDS011;6107;49.078;8.578;2022-12-07T04:17:52;21.37;;;11.73;;
12088;SDS011;6107;49.078;8.578;2022-12-07T04:20:19;21.20;;;11.20;;
12088;SDS011;6107;49.078;8.578;2022-12-07T04:22:44;21.33;;;11.57;;
12088;SDS011;6107;49.078;8.578;2022-12-07T04:25:10;18.73;;;10.50;;
12088;SDS011;6107;49.078;8.578;2022-12-07T04:27:35;20.37;;;10.87;;
12088;SDS011;6107;49.078;8.578;2022-12-07T04:30:01;19.23;;;10.67;;
12088;SDS011;6107;49.078;8.578;2022-12-07T04:32:27;23.10;;;11.47;;
12088;SDS011;6107;49.078;8.578;2022-12-07T04:34:53;21.30;;;11.07;;
12088;SDS011;6107;49.078;8.578;2022-12-07T04:37:18;19.27;;;11.10;;
12088;SDS011;6107;49.078;8.578;2022-12-07T04:39:44;21.97;;;10.90;;
12088;SDS011;6107;49.078;8.578;2022-12-07T04:42:09;20.17;;;11.07;;
12088;SDS011;6107;49.078;8.578;2022-12-07T04:44:36;19.37;;;10.60;;
12088;SDS011;6107;49.078;8.578;2022-12-07T04:47:01;22.23;;;10.77;;
12088;SDS011;6107;49.078;8.578;2022-12-07T04:49:27;19.33;;;10.57;;
12088;SDS011;6107;49.078;8.578;2022-12-07T04:51:53;19.00;;;10.67;;
12088;SDS011;6107;49.078;8.578;2022-12-07T04:54:19;21.83;;;11.40;;
12088;SDS011;6107;49.078;8.578;2022-12-07T04:56:45;19.80;;;10.63;;
12088;SDS011;6107;49.078;8.578;2022-12-07T04:59:11;20.47;;;11.07;;
12088;SDS011;6107;49.078;8.578;2022-12-07T05:01:38;21.00;;;11.30;;
12088;SDS011;6107;49.078;8.578;2022-12-07T05:04:03;20.70;;;11.00;;
12088;SDS011;6107;49.078;8.578;2022-12-07T05:06:29;19.70;;;10.77;;
12088;SDS011;6107;49.078;8.578;2022-12-07T05:08:55;19.63;;;11.57;;
12088;SDS011;6107;49.078;8.578;2022-12-07T05:11:20;20.33;;;11.10;;
12088;SDS011;6107;49.078;8.578;2022-12-07T05:14:22;19.70;;;10.67;;
12088;SDS011;6107;49.078;8.578;2022-12-07T05:16:48;20.37;;;11.00;;
12088;SDS011;6107;49.078;8.578;2022-12-07T05:19:16;21.20;;;10.70;;
12088;SDS011;6107;49.078;8.578;2022-12-07T05:21:42;20.37;;;10.83;;
12088;SDS011;6107;49.078;8.578;2022-12-07T05:24:08;21.63;;;10.07;;
12088;SDS011;6107;49.078;8.578;2022-12-07T05:26:36;20.67;;;10.67;;
12088;SDS011;6107;49.078;8.578;2022-12-07T05:29:02;17.20;;;9.40;;
12088;SDS011;6107;49.078;8.578;2022-12-07T05:31:28;18.10;;;9.93;;
12088;SDS011;6107;49.078;8.578;2022-12-07T05:33:54;19.43;;;10.47;;
12088;SDS011;6107;49.078;8.578;2022-12-07T05:36:20;21.07;;;10.27;;
12088;SDS011;6107;49.078;8.578;2022-12-07T05:38:46;22.60;;;10.90;;
12088;SDS011;6107;49.078;8.578;2022-12-07T05:41:12;21.03;;;11.47;;
12088;SDS011;6107;49.078;8.578;2022-12-07T05:43:58;20.10;;;10.67;;
12088;SDS011;6107;49.078;8.578;2022-12-07T05:46:24;20.70;;;11.17;;
12088;SDS011;6107;49.078;8.578;2022-12-07T05:48:50;17.87;;;9.60;;
12088;SDS011;6107;49.078;8.578;2022-12-07T05:51:16;18.87;;;10.00;;
12088;SDS011;6107;49.078;8.578;2022-12-07T05:53:41;21.73;;;10.60;;
12088;SDS011;6107;49.078;8.578;2022-12-07T05:56:07;20.40;;;11.03;;
12088;SDS011;6107;49.078;8.578;2022-12-07T05:58:32;19.47;;;10.47;;
12088;SDS011;6107;49.078;8.578;2022-12-07T06:01:16;21.33;;;11.63;;
12088;SDS011;6107;49.078;8.578;2022-12-07T06:03:42;20.57;;;10.63;;
12088;SDS011;6107;49.078;8.578;2022-12-07T06:06:07;18.37;;;10.67;;
12088;SDS011;6107;49.078;8.578;2022-12-07T06:08:33;19.20;;;10.73;;
12088;SDS011;6107;49.078;8.578;2022-12-07T06:10:58;21.80;;;11.10;;
12088;SDS011;6107;49.078;8.578;2022-12-07T06:13:43;18.37;;;10.20;;
12088;SDS011;6107;49.078;8.578;2022-12-07T06:16:08;20.40;;;11.03;;
12088;SDS011;6107;49.078;8.578;2022-12-07T06:18:34;20.63;;;11.07;;
12088;SDS011;6107;49.078;8.578;2022-12-07T06:20:59;17.90;;;10.17;;
12088;SDS011;6107;49.078;8.578;2022-12-07T06:23:25;19.80;;;11.10;;
12088;SDS011;6107;49.078;8.578;2022-12-07T06:25:50;18.60;;;10.57;;
12088;SDS011;6107;49.078;8.578;2022-12-07T06:28:16;19.00;;;10.60;;
12088;SDS011;6107;49.078;8.578;2022-12-07T06:30:41;19.70;;;10.17;;
12088;SDS011;6107;49.078;8.578;2022-12-07T06:33:07;17.20;;;9.83;;
12088;SDS011;6107;49.078;8.578;2022-12-07T06:35:33;19.53;;;10.43;;
12088;SDS011;6107;49.078;8.578;2022-12-07T06:37:58;18.00;;;9.90;;
12088;SDS011;6107;49.078;8.578;2022-12-07T06:40:24;19.03;;;10.37;;
12088;SDS011;6107;49.078;8.578;2022-12-07T06:42:49;21.07;;;10.47;;
12088;SDS011;6107;49.078;8.578;2022-12-07T06:45:15;19.47;;;10.40;;
12088;SDS011;6107;49.078;8.578;2022-12-07T06:47:41;20.97;;;10.70;;
12088;SDS011;6107;49.078;8.578;2022-12-07T06:50:06;16.87;;;9.67;;
12088;SDS011;6107;49.078;8.578;2022-12-07T06:52:32;18.20;;;9.93;;
12088;SDS011;6107;49.078;8.578;2022-12-07T06:54:58;19.00;;;9.77;;
12088;SDS011;6107;49.078;8.578;2022-12-07T06:57:24;18.13;;;8.90;;
12088;SDS011;6107;49.078;8.578;2022-12-07T06:59:50;19.33;;;9.97;;
12088;SDS011;6107;49.078;8.578;2022-12-07T07:02:17;18.20;;;10.07;;
12088;SDS011;6107;49.078;8.578;2022-12-07T07:04:42;16.30;;;9.20;;
12088;SDS011;6107;49.078;8.578;2022-12-07T07:07:08;19.03;;;10.00;;
12088;SDS011;6107;49.078;8.578;2022-12-07T07:09:34;17.87;;;9.47;;
12088;SDS011;6107;49.078;8.578;2022-12-07T07:11:59;18.23;;;9.67;;
12088;SDS011;6107;49.078;8.578;2022-12-07T07:14:25;17.03;;;9.20;;
12088;SDS011;6107;49.078;8.578;2022-12-07T07:16:51;15.53;;;9.10;;
12088;SDS011;6107;49.078;8.578;2022-12-07T07:19:17;17.43;;;9.50;;
12088;SDS011;6107;49.078;8.578;2022-12-07T07:21:42;19.47;;;9.57;;
12088;SDS011;6107;49.078;8.578;2022-12-07T07:24:08;19.70;;;10.50;;
12088;SDS011;6107;49.078;8.578;2022-12-07T07:26:33;18.80;;;10.40;;
12088;SDS011;6107;49.078;8.578;2022-12-07T07:29:02;15.23;;;9.30;;
12088;SDS011;6107;49.078;8.578;2022-12-07T07:31:28;18.73;;;10.20;;
12088;SDS011;6107;49.078;8.578;2022-12-07T07:33:53;17.20;;;9.77;;
12088;SDS011;6107;49.078;8.578;2022-12-07T07:36:19;22.50;;;9.30;;
12088;SDS011;6107;49.078;8.578;2022-12-07T07:38:45;21.40;;;10.33;;
12088;SDS011;6107;49.078;8.578;2022-12-07T07:41:11;17.13;;;9.20;;
12088;SDS011;6107;49.078;8.578;2022-12-07T07:43:36;17.33;;;9.60;;
12088;SDS011;6107;49.078;8.578;2022-12-07T07:46:02;17.93;;;9.70;;
12088;SDS011;6107;49.078;8.578;2022-12-07T07:48:27;18.27;;;8.97;;
12088;SDS011;6107;49.078;8.578;2022-12-07T07:50:53;16.07;;;9.47;;
12088;SDS011;6107;49.078;8.578;2022-12-07T07:53:18;17.07;;;9.03;;
12088;SDS011;6107;49.078;8.578;2022-12-07T07:55:51;18.53;;;9.10;;
12088;SDS011;6107;49.078;8.578;2022-12-07T07:58:18;16.77;;;9.17;;
12088;SDS011;6107;49.078;8.578;2022-12-07T08:00:44;13.90;;;8.63;;
12088;SDS011;6107;49.078;8.578;2022-12-07T08:03:09;17.50;;;9.13;;
12088;SDS011;6107;49.078;8.578;2022-12-07T08:05:36;17.07;;;8.90;;
12088;SDS011;6107;49.078;8.578;2022-12-07T08:08:02;18.63;;;8.90;;
12088;SDS011;6107;49.078;8.578;2022-12-07T08:10:28;16.83;;;8.90;;
12088;SDS011;6107;49.078;8.578;2022-12-07T08:12:53;15.80;;;9.10;;
12088;SDS011;6107;49.078;8.578;2022-12-07T08:15:39;15.60;;;8.57;;
12088;SDS011;6107;49.078;8.578;2022-12-07T08:18:06;14.13;;;8.57;;
12088;SDS011;6107;49.078;8.578;2022-12-07T08:20:33;16.37;;;8.47;;
12088;SDS011;6107;49.078;8.578;2022-12-07T08:22:59;16.57;;;8.27;;
12088;SDS011;6107;49.078;8.578;2022-12-07T08:25:25;17.27;;;8.23;;
12088;SDS011;6107;49.078;8.578;2022-12-07T08:27:51;19.63;;;9.60;;
12088;SDS011;6107;49.078;8.578;2022-12-07T08:30:17;17.30;;;9.07;;
12088;SDS011;6107;49.078;8.578;2022-12-07T08:32:46;17.17;;;9.73;;
12088;SDS011;6107;49.078;8.578;2022-12-07T08:35:12;15.77;;;8.40;;
12088;SDS011;6107;49.078;8.578;2022-12-07T08:37:39;15.43;;;8.50;;
12088;SDS011;6107;49.078;8.578;2022-12-07T08:40:05;16.73;;;8.30;;
12088;SDS011;6107;49.078;8.578;2022-12-07T08:42:32;15.57;;;8.43;;
12088;SDS011;6107;49.078;8.578;2022-12-07T08:45:05;15.23;;;8.50;;
12088;SDS011;6107;49.078;8.578;2022-12-07T08:50:09;15.73;;;8.57;;
12088;SDS011;6107;49.078;8.578;2022-12-07T08:52:36;14.10;;;7.97;;
12088;SDS011;6107;49.078;8.578;2022-12-07T08:55:04;14.63;;;8.37;;
12088;SDS011;6107;49.078;8.578;2022-12-07T08:57:30;16.37;;;7.67;;
12088;SDS011;6107;49.078;8.578;2022-12-07T08:59:59;17.17;;;7.53;;
12088;SDS011;6107;49.078;8.578;2022-12-07T09:02:25;15.10;;;8.03;;
12088;SDS011;6107;49.078;8.578;2022-12-07T09:04:51;15.37;;;8.43;;
12088;SDS011;6107;49.078;8.578;2022-12-07T09:07:16;20.60;;;8.13;;
12088;SDS011;6107;49.078;8.578;2022-12-07T09:09:42;15.03;;;8.23;;
12088;SDS011;6107;49.078;8.578;2022-12-07T09:12:08;15.53;;;8.27;;
12088;SDS011;6107;49.078;8.578;2022-12-07T09:14:33;15.20;;;8.03;;
12088;SDS011;6107;49.078;8.578;2022-12-07T09:17:06;16.70;;;8.10;;
12088;SDS011;6107;49.078;8.578;2022-12-07T09:19:33;15.60;;;8.40;;
12088;SDS011;6107;49.078;8.578;2022-12-07T09:21:58;16.70;;;8.13;;
12088;SDS011;6107;49.078;8.578;2022-12-07T09:24:24;15.67;;;7.77;;
12088;SDS011;6107;49.078;8.578;2022-12-07T09:26:52;16.00;;;8.00;;
12088;SDS011;6107;49.078;8.578;2022-12-07T09:29:18;13.80;;;7.80;;
12088;SDS011;6107;49.078;8.578;2022-12-07T09:31:43;13.73;;;8.07;;
12088;SDS011;6107;49.078;8.578;2022-12-07T09:34:09;15.17;;;8.30;;
12088;SDS011;6107;49.078;8.578;2022-12-07T09:36:34;14.50;;;7.67;;
12088;SDS011;6107;49.078;8.578;2022-12-07T09:39:00;14.87;;;7.97;;
12088;SDS011;6107;49.078;8.578;2022-12-07T09:41:27;15.10;;;8.47;;
12088;SDS011;6107;49.078;8.578;2022-12-07T09:43:58;14.20;;;8.50;;
12088;SDS011;6107;49.078;8.578;2022-12-07T09:46:39;14.30;;;8.20;;
12088;SDS011;6107;49.078;8.578;2022-12-07T09:49:08;14.83;;;8.10;;
12088;SDS011;6107;49.078;8.578;2022-12-07T09:51:46;15.80;;;8.10;;
12088;SDS011;6107;49.078;8.578;2022-12-07T09:54:12;16.23;;;8.67;;
12088;SDS011;6107;49.078;8.578;2022-12-07T09:56:40;13.80;;;7.93;;
12088;SDS011;6107;49.078;8.578;2022-12-07T09:59:09;16.03;;;8.47;;
12088;SDS011;6107;49.078;8.578;2022-12-07T10:01:41;15.83;;;8.60;;
12088;SDS011;6107;49.078;8.578;2022-12-07T10:04:20;14.73;;;8.13;;
12088;SDS011;6107;49.078;8.578;2022-12-07T10:06:48;14.80;;;8.23;;
12088;SDS011;6107;49.078;8.578;2022-12-07T10:09:16;15.00;;;7.73;;
12088;SDS011;6107;49.078;8.578;2022-12-07T10:14:36;15.83;;;7.90;;
12088;SDS011;6107;49.078;8.578;2022-12-07T10:20:35;14.93;;;8.27;;
12088;SDS011;6107;49.078;8.578;2022-12-07T10:23:02;13.23;;;8.60;;
12088;SDS011;6107;49.078;8.578;2022-12-07T10:25:31;15.37;;;8.47;;
12088;SDS011;6107;49.078;8.578;2022-12-07T10:27:59;17.23;;;8.70;;
12088;SDS011;6107;49.078;8.578;2022-12-07T10:33:28;15.07;;;8.30;;
12088;SDS011;6107;49.078;8.578;2022-12-07T10:36:15;14.00;;;7.93;;
12088;SDS011;6107;49.078;8.578;2022-12-07T10:38:48;18.27;;;9.33;;
12088;SDS011;6107;49.078;8.578;2022-12-07T10:41:23;16.77;;;8.97;;
12088;SDS011;6107;49.078;8.578;2022-12-07T10:43:50;15.60;;;8.77;;
12088;SDS011;6107;49.078;8.578;2022-12-07T10:54:29;14.87;;;8.70;;
12088;SDS011;6107;49.078;8.578;2022-12-07T10:57:24;14.80;;;8.47;;
12088;SDS011;6107;49.078;8.578;2022-12-07T11:07:57;13.73;;;8.43;;
12088;SDS011;6107;49.078;8.578;2022-12-07T11:10:47;15.10;;;8.57;;
12088;SDS011;6107;49.078;8.578;2022-12-07T11:19:13;15.00;;;8.53;;
12088;SDS011;6107;49.078;8.578;2022-12-07T11:22:13;16.90;;;8.40;;
12088;SDS011;6107;49.078;8.578;2022-12-07T11:24:53;15.93;;;8.60;;
12088;SDS011;6107;49.078;8.578;2022-12-07T11:35:13;16.87;;;8.23;;
12088;SDS011;6107;49.078;8.578;2022-12-07T11:38:15;16.63;;;8.43;;
12088;SDS011;6107;49.078;8.578;2022-12-07T11:40:43;13.90;;;8.00;;
12088;SDS011;6107;49.078;8.578;2022-12-07T11:43:15;13.23;;;8.13;;
12088;SDS011;6107;49.078;8.578;2022-12-07T11:46:00;15.27;;;7.93;;
12088;SDS011;6107;49.078;8.578;2022-12-07T11:48:37;15.83;;;8.60;;
12088;SDS011;6107;49.078;8.578;2022-12-07T11:51:09;16.23;;;8.33;;
12088;SDS011;6107;49.078;8.578;2022-12-07T11:53:40;14.00;;;8.47;;
12088;SDS011;6107;49.078;8.578;2022-12-07T11:56:15;16.20;;;9.37;;
12088;SDS011;6107;49.078;8.578;2022-12-07T11:58:46;14.73;;;8.30;;
12088;SDS011;6107;49.078;8.578;2022-12-07T12:01:32;17.70;;;8.70;;
12088;SDS011;6107;49.078;8.578;2022-12-07T12:06:34;15.37;;;8.77;;
12088;SDS011;6107;49.078;8.578;2022-12-07T12:12:14;15.77;;;8.30;;
12088;SDS011;6107;49.078;8.578;2022-12-07T12:17:50;18.73;;;10.90;;
12088;SDS011;6107;49.078;8.578;2022-12-07T12:25:57;17.03;;;9.67;;
12088;SDS011;6107;49.078;8.578;2022-12-07T12:31:29;15.80;;;9.20;;
12088;SDS011;6107;49.078;8.578;2022-12-07T12:34:00;16.83;;;9.23;;
12088;SDS011;6107;49.078;8.578;2022-12-07T12:44:03;18.80;;;9.50;;
12088;SDS011;6107;49.078;8.578;2022-12-07T12:56:59;17.23;;;9.20;;
12088;SDS011;6107;49.078;8.578;2022-12-07T13:04:54;19.90;;;10.20;;
12088;SDS011;6107;49.078;8.578;2022-12-07T13:15:45;18.50;;;9.90;;
12088;SDS011;6107;49.078;8.578;2022-12-07T13:26:00;17.67;;;9.83;;
12088;SDS011;6107;49.078;8.578;2022-12-07T13:28:46;17.47;;;9.43;;
12088;SDS011;6107;49.078;8.578;2022-12-07T13:31:32;19.23;;;10.27;;
12088;SDS011;6107;49.078;8.578;2022-12-07T13:34:03;18.37;;;9.93;;
12088;SDS011;6107;49.078;8.578;2022-12-07T13:36:49;19.50;;;10.47;;
12088;SDS011;6107;49.078;8.578;2022-12-07T13:39:17;17.87;;;9.87;;
12088;SDS011;6107;49.078;8.578;2022-12-07T13:41:44;20.10;;;10.40;;
12088;SDS011;6107;49.078;8.578;2022-12-07T13:44:16;18.87;;;10.37;;
12088;SDS011;6107;49.078;8.578;2022-12-07T13:47:26;17.07;;;9.23;;
12088;SDS011;6107;49.078;8.578;2022-12-07T13:49:38;20.13;;;10.30;;
12088;SDS011;6107;49.078;8.578;2022-12-07T13:52:18;20.33;;;10.23;;
12088;SDS011;6107;49.078;8.578;2022-12-07T13:54:59;17.73;;;10.13;;
12088;SDS011;6107;49.078;8.578;2022-12-07T13:57:31;19.93;;;11.17;;
12088;SDS011;6107;49.078;8.578;2022-12-07T14:00:00;20.23;;;10.00;;
12088;SDS011;6107;49.078;8.578;2022-12-07T14:02:31;18.93;;;9.90;;
12088;SDS011;6107;49.078;8.578;2022-12-07T14:05:14;21.33;;;9.90;;
12088;SDS011;6107;49.078;8.578;2022-12-07T14:07:55;18.00;;;10.20;;
12088;SDS011;6107;49.078;8.578;2022-12-07T14:13:00;15.97;;;8.80;;
12088;SDS011;6107;49.078;8.578;2022-12-07T14:15:31;19.03;;;9.57;;
12088;SDS011;6107;49.078;8.578;2022-12-07T14:17:58;19.20;;;10.10;;
12088;SDS011;6107;49.078;8.578;2022-12-07T14:20:33;15.37;;;9.40;;
12088;SDS011;6107;49.078;8.578;2022-12-07T14:23:04;18.13;;;10.00;;
12088;SDS011;6107;49.078;8.578;2022-12-07T14:25:49;19.73;;;10.83;;
12088;SDS011;6107;49.078;8.578;2022-12-07T14:28:27;17.47;;;10.43;;
12088;SDS011;6107;49.078;8.578;2022-12-07T14:30:54;19.67;;;10.63;;
12088;SDS011;6107;49.078;8.578;2022-12-07T14:33:20;20.30;;;10.83;;
12088;SDS011;6107;49.078;8.578;2022-12-07T14:35:46;19.67;;;10.37;;
12088;SDS011;6107;49.078;8.578;2022-12-07T14:38:12;17.00;;;9.57;;
12088;SDS011;6107;49.078;8.578;2022-12-07T14:40:37;17.63;;;9.80;;
12088;SDS011;6107;49.078;8.578;2022-12-07T14:43:09;20.70;;;9.93;;
12088;SDS011;6107;49.078;8.578;2022-12-07T14:45:37;16.37;;;9.60;;
12088;SDS011;6107;49.078;8.578;2022-12-07T14:48:13;17.50;;;9.87;;
12088;SDS011;6107;49.078;8.578;2022-12-07T14:50:40;15.70;;;8.90;;
12088;SDS011;6107;49.078;8.578;2022-12-07T14:53:11;18.70;;;12.07;;
12088;SDS011;6107;49.078;8.578;2022-12-07T14:55:39;15.93;;;9.07;;
12088;SDS011;6107;49.078;8.578;2022-12-07T14:58:04;14.33;;;9.00;;
12088;SDS011;6107;49.078;8.578;2022-12-07T15:00:30;17.50;;;8.93;;
12088;SDS011;6107;49.078;8.578;2022-12-07T15:02:56;16.73;;;8.87;;
12088;SDS011;6107;49.078;8.578;2022-12-07T15:05:22;16.77;;;10.30;;
12088;SDS011;6107;49.078;8.578;2022-12-07T15:07:48;17.97;;;9.30;;
12088;SDS011;6107;49.078;8.578;2022-12-07T15:10:17;15.13;;;8.87;;
12088;SDS011;6107;49.078;8.578;2022-12-07T15:12:47;16.43;;;8.73;;
12088;SDS011;6107;49.078;8.578;2022-12-07T15:15:13;14.83;;;8.30;;
12088;SDS011;6107;49.078;8.578;2022-12-07T15:17:39;14.63;;;8.23;;
12088;SDS011;6107;49.078;8.578;2022-12-07T15:20:05;14.83;;;7.70;;
12088;SDS011;6107;49.078;8.578;2022-12-07T15:22:35;15.40;;;8.17;;
12088;SDS011;6107;49.078;8.578;2022-12-07T15:25:01;16.73;;;8.80;;
12088;SDS011;6107;49.078;8.578;2022-12-07T15:27:29;13.53;;;8.30;;
12088;SDS011;6107;49.078;8.578;2022-12-07T15:29:55;15.37;;;8.83;;
12088;SDS011;6107;49.078;8.578;2022-12-07T15:32:20;16.00;;;8.17;;
12088;SDS011;6107;49.078;8.578;2022-12-07T15:34:47;13.00;;;7.90;;
12088;SDS011;6107;49.078;8.578;2022-12-07T15:37:13;15.00;;;9.90;;
12088;SDS011;6107;49.078;8.578;2022-12-07T15:39:38;14.43;;;7.70;;
12088;SDS011;6107;49.078;8.578;2022-12-07T15:42:04;13.90;;;7.60;;
12088;SDS011;6107;49.078;8.578;2022-12-07T15:47:40;14.47;;;7.93;;
12088;SDS011;6107;49.078;8.578;2022-12-07T15:50:08;12.73;;;7.57;;
12088;SDS011;6107;49.078;8.578;2022-12-07T15:52:35;15.80;;;8.53;;
12088;SDS011;6107;49.078;8.578;2022-12-07T15:55:00;14.17;;;8.37;;
12088;SDS011;6107;49.078;8.578;2022-12-07T15:57:28;14.40;;;7.90;;
12088;SDS011;6107;49.078;8.578;2022-12-07T15:59:54;13.13;;;7.23;;
12088;SDS011;6107;49.078;8.578;2022-12-07T16:02:20;15.47;;;8.07;;
12088;SDS011;6107;49.078;8.578;2022-12-07T16:04:45;12.03;;;7.60;;
12088;SDS011;6107;49.078;8.578;2022-12-07T16:07:11;15.30;;;8.30;;
12088;SDS011;6107;49.078;8.578;2022-12-07T16:09:39;14.43;;;8.43;;
12088;SDS011;6107;49.078;8.578;2022-12-07T16:12:05;12.63;;;7.90;;
12088;SDS011;6107;49.078;8.578;2022-12-07T16:14:30;13.13;;;7.77;;
12088;SDS011;6107;49.078;8.578;2022-12-07T16:16:58;14.73;;;8.47;;
12088;SDS011;6107;49.078;8.578;2022-12-07T16:19:24;14.70;;;9.47;;
12088;SDS011;6107;49.078;8.578;2022-12-07T16:21:49;16.40;;;8.60;;
12088;SDS011;6107;49.078;8.578;2022-12-07T16:24:15;14.37;;;8.43;;
12088;SDS011;6107;49.078;8.578;2022-12-07T16:26:41;14.60;;;8.53;;
12088;SDS011;6107;49.078;8.578;2022-12-07T16:29:09;16.83;;;9.10;;
12088;SDS011;6107;49.078;8.578;2022-12-07T16:31:37;13.67;;;8.10;;
12088;SDS011;6107;49.078;8.578;2022-12-07T16:34:02;18.20;;;8.43;;
12088;SDS011;6107;49.078;8.578;2022-12-07T16:36:28;14.60;;;8.30;;
12088;SDS011;6107;49.078;8.578;2022-12-07T16:38:54;15.47;;;7.87;;
12088;SDS011;6107;49.078;8.578;2022-12-07T16:41:19;15.97;;;8.60;;
12088;SDS011;6107;49.078;8.578;2022-12-07T16:43:45;15.90;;;7.97;;
12088;SDS011;6107;49.078;8.578;2022-12-07T16:46:11;15.23;;;8.53;;
12088;SDS011;6107;49.078;8.578;2022-12-07T16:48:37;26.50;;;13.13;;
12088;SDS011;6107;49.078;8.578;2022-12-07T16:51:07;18.20;;;8.97;;
12088;SDS011;6107;49.078;8.578;2022-12-07T16:53:34;16.00;;;8.97;;
12088;SDS011;6107;49.078;8.578;2022-12-07T16:56:01;19.73;;;9.53;;
12088;SDS011;6107;49.078;8.578;2022-12-07T16:58:27;19.83;;;11.47;;
12088;SDS011;6107;49.078;8.578;2022-12-07T17:00:53;18.73;;;9.90;;
12088;SDS011;6107;49.078;8.578;2022-12-07T17:03:19;15.57;;;8.77;;
12088;SDS011;6107;49.078;8.578;2022-12-07T17:05:45;18.17;;;10.57;;
12088;SDS011;6107;49.078;8.578;2022-12-07T17:08:12;20.00;;;12.07;;
12088;SDS011;6107;49.078;8.578;2022-12-07T17:10:39;15.70;;;8.93;;
12088;SDS011;6107;49.078;8.578;2022-12-07T17:13:07;17.47;;;9.00;;
12088;SDS011;6107;49.078;8.578;2022-12-07T17:19:15;18.60;;;9.40;;